sensor_id;sensor_type;location;lat;lon;timestamp;P1;durP1;ratioP1;P2;durP2;ratioP2
8399;SDS011;4237;47.030;15.396;2023-03-15T00:01:12;0.77;;;0.40;;
8399;SDS011;4237;47.030;15.396;2023-03-15T00:03:44;0.97;;;0.50;;
8399;SDS011;4237;47.030;15.396;2023-03-15T00:06:14;1.07;;;0.40;;
8399;SDS011;4237;47.030;15.396;2023-03-15T00:08:43;0.80;;;0.20;;
8399;SDS011;4237;47.030;15.396;2023-03-15T00:11:14;0.30;;;0.23;;
8399;SDS011;4237;47.030;15.396;2023-03-15T00:13:44;0.40;;;0.20;;
8399;SDS011;4237;47.030;15.396;2023-03-15T00:16:14;3.17;;;0.40;;
8399;SDS011;4237;47.030;15.396;2023-03-15T00:18:44;0.57;;;0.30;;
8399;SDS011;4237;47.030;15.396;2023-03-15T00:21:13;0.97;;;0.40;;
8399;SDS011;4237;47.030;15.396;2023-03-15T00:23:42;1.53;;;0.37;;
8399;SDS011;4237;47.030;15.396;2023-03-15T00:26:11;1.33;;;0.30;;
8399;SDS011;4237;47.030;15.396;2023-03-15T00:28:40;0.40;;;0.20;;
8399;SDS011;4237;47.030;15.396;2023-03-15T00:31:18;0.83;;;0.40;;
8399;SDS011;4237;47.030;15.396;2023-03-15T00:33:49;1.20;;;0.30;;
8399;SDS011;4237;47.030;15.396;2023-03-15T00:36:22;0.93;;;0.30;;
8399;SDS011;4237;47.030;15.396;2023-03-15T00:38:52;1.43;;;0.30;;
8399;SDS011;4237;47.030;15.396;2023-03-15T00:41:23;0.97;;;0.50;;
8399;SDS011;4237;47.030;15.396;2023-03-15T00:43:52;1.93;;;0.40;;
8399;SDS011;4237;47.030;15.396;2023-03-15T00:46:20;0.80;;;0.30;;
8399;SDS011;4237;47.030;15.396;2023-03-15T00:48:49;3.37;;;0.50;;
8399;SDS011;4237;47.030;15.396;2023-03-15T00:51:19;0.70;;;0.30;;
8399;SDS011;4237;47.030;15.396;2023-03-15T00:53:50;0.73;;;0.20;;
8399;SDS011;4237;47.030;15.396;2023-03-15T00:56:21;0.73;;;0.40;;
8399;SDS011;4237;47.030;15.396;2023-03-15T00:58:51;0.57;;;0.30;;
8399;SDS011;4237;47.030;15.396;2023-03-15T01:01:21;5.27;;;0.50;;
8399;SDS011;4237;47.030;15.396;2023-03-15T01:03:52;0.40;;;0.30;;
8399;SDS011;4237;47.030;15.396;2023-03-15T01:06:24;0.30;;;0.30;;
8399;SDS011;4237;47.030;15.396;2023-03-15T01:08:54;1.10;;;0.60;;
8399;SDS011;4237;47.030;15.396;2023-03-15T01:11:24;1.40;;;0.40;;
8399;SDS011;4237;47.030;15.396;2023-03-15T01:13:55;0.23;;;0.20;;
8399;SDS011;4237;47.030;15.396;2023-03-15T01:16:26;0.70;;;0.40;;
8399;SDS011;4237;47.030;15.396;2023-03-15T01:18:55;1.47;;;0.40;;
8399;SDS011;4237;47.030;15.396;2023-03-15T01:21:23;0.80;;;0.40;;
8399;SDS011;4237;47.030;15.396;2023-03-15T01:23:52;0.27;;;0.20;;
8399;SDS011;4237;47.030;15.396;2023-03-15T01:26:21;0.57;;;0.40;;
8399;SDS011;4237;47.030;15.396;2023-03-15T01:28:50;0.40;;;0.40;;
8399;SDS011;4237;47.030;15.396;2023-03-15T01:31:20;0.60;;;0.50;;
8399;SDS011;4237;47.030;15.396;2023-03-15T01:33:53;1.07;;;0.30;;
8399;SDS011;4237;47.030;15.396;2023-03-15T01:36:23;0.87;;;0.33;;
8399;SDS011;4237;47.030;15.396;2023-03-15T01:38:52;1.87;;;0.50;;
8399;SDS011;4237;47.030;15.396;2023-03-15T01:41:21;0.73;;;0.37;;
8399;SDS011;4237;47.030;15.396;2023-03-15T01:43:51;0.47;;;0.23;;
8399;SDS011;4237;47.030;15.396;2023-03-15T01:48:55;1.27;;;0.20;;
8399;SDS011;4237;47.030;15.396;2023-03-15T01:51:32;0.83;;;0.30;;
8399;SDS011;4237;47.030;15.396;2023-03-15T01:54:06;1.17;;;0.30;;
8399;SDS011;4237;47.030;15.396;2023-03-15T01:56:49;0.80;;;0.30;;
8399;SDS011;4237;47.030;15.396;2023-03-15T01:59:28;1.07;;;0.27;;
8399;SDS011;4237;47.030;15.396;2023-03-15T02:01:58;2.40;;;0.70;;
8399;SDS011;4237;47.030;15.396;2023-03-15T02:04:28;2.07;;;0.40;;
8399;SDS011;4237;47.030;15.396;2023-03-15T02:06:59;1.97;;;0.57;;
8399;SDS011;4237;47.030;15.396;2023-03-15T02:09:46;0.93;;;0.20;;
8399;SDS011;4237;47.030;15.396;2023-03-15T02:12:10;0.50;;;0.40;;
8399;SDS011;4237;47.030;15.396;2023-03-15T02:14:39;0.30;;;0.13;;
8399;SDS011;4237;47.030;15.396;2023-03-15T02:17:09;0.23;;;0.20;;
8399;SDS011;4237;47.030;15.396;2023-03-15T02:22:29;1.00;;;0.30;;
8399;SDS011;4237;47.030;15.396;2023-03-15T02:25:09;0.23;;;0.20;;
8399;SDS011;4237;47.030;15.396;2023-03-15T02:27:38;3.83;;;0.67;;
8399;SDS011;4237;47.030;15.396;2023-03-15T02:30:07;1.13;;;0.30;;
8399;SDS011;4237;47.030;15.396;2023-03-15T02:32:38;1.00;;;0.43;;
8399;SDS011;4237;47.030;15.396;2023-03-15T02:35:08;0.63;;;0.33;;
8399;SDS011;4237;47.030;15.396;2023-03-15T02:37:37;0.50;;;0.30;;
8399;SDS011;4237;47.030;15.396;2023-03-15T02:40:11;1.27;;;0.40;;
8399;SDS011;4237;47.030;15.396;2023-03-15T02:42:45;2.97;;;0.40;;
8399;SDS011;4237;47.030;15.396;2023-03-15T02:45:16;1.20;;;0.50;;
8399;SDS011;4237;47.030;15.396;2023-03-15T02:47:46;1.07;;;0.33;;
8399;SDS011;4237;47.030;15.396;2023-03-15T02:50:16;1.50;;;0.40;;
8399;SDS011;4237;47.030;15.396;2023-03-15T02:52:45;0.20;;;0.20;;
8399;SDS011;4237;47.030;15.396;2023-03-15T02:55:13;1.37;;;0.60;;
8399;SDS011;4237;47.030;15.396;2023-03-15T02:57:44;2.30;;;0.40;;
8399;SDS011;4237;47.030;15.396;2023-03-15T03:00:13;2.13;;;0.43;;
8399;SDS011;4237;47.030;15.396;2023-03-15T03:02:43;0.83;;;0.50;;
8399;SDS011;4237;47.030;15.396;2023-03-15T03:05:14;1.37;;;0.40;;
8399;SDS011;4237;47.030;15.396;2023-03-15T03:07:44;0.80;;;0.40;;
8399;SDS011;4237;47.030;15.396;2023-03-15T03:10:14;0.70;;;0.50;;
8399;SDS011;4237;47.030;15.396;2023-03-15T03:12:44;0.53;;;0.50;;
8399;SDS011;4237;47.030;15.396;2023-03-15T03:15:13;4.00;;;0.60;;
8399;SDS011;4237;47.030;15.396;2023-03-15T03:17:42;2.17;;;0.63;;
8399;SDS011;4237;47.030;15.396;2023-03-15T03:20:11;1.33;;;0.80;;
8399;SDS011;4237;47.030;15.396;2023-03-15T03:22:40;0.83;;;0.50;;
8399;SDS011;4237;47.030;15.396;2023-03-15T03:25:11;0.57;;;0.37;;
8399;SDS011;4237;47.030;15.396;2023-03-15T03:27:40;0.60;;;0.50;;
8399;SDS011;4237;47.030;15.396;2023-03-15T03:30:10;4.20;;;0.60;;
8399;SDS011;4237;47.030;15.396;2023-03-15T03:32:40;2.07;;;0.87;;
8399;SDS011;4237;47.030;15.396;2023-03-15T03:35:09;0.93;;;0.60;;
8399;SDS011;4237;47.030;15.396;2023-03-15T03:37:37;2.50;;;1.10;;
8399;SDS011;4237;47.030;15.396;2023-03-15T03:40:07;2.33;;;0.70;;
8399;SDS011;4237;47.030;15.396;2023-03-15T03:42:37;2.33;;;1.30;;
8399;SDS011;4237;47.030;15.396;2023-03-15T03:45:06;2.17;;;0.80;;
8399;SDS011;4237;47.030;15.396;2023-03-15T03:47:35;1.40;;;0.90;;
8399;SDS011;4237;47.030;15.396;2023-03-15T03:50:04;4.67;;;0.80;;
8399;SDS011;4237;47.030;15.396;2023-03-15T03:52:33;1.43;;;0.70;;
8399;SDS011;4237;47.030;15.396;2023-03-15T03:55:02;1.43;;;0.70;;
8399;SDS011;4237;47.030;15.396;2023-03-15T03:57:31;0.67;;;0.60;;
8399;SDS011;4237;47.030;15.396;2023-03-15T04:00:00;2.30;;;0.70;;
8399;SDS011;4237;47.030;15.396;2023-03-15T04:02:28;1.63;;;0.57;;
8399;SDS011;4237;47.030;15.396;2023-03-15T04:04:57;3.17;;;0.50;;
8399;SDS011;4237;47.030;15.396;2023-03-15T04:07:26;2.17;;;0.70;;
8399;SDS011;4237;47.030;15.396;2023-03-15T04:09:54;1.83;;;0.63;;
8399;SDS011;4237;47.030;15.396;2023-03-15T04:12:23;1.63;;;0.50;;
8399;SDS011;4237;47.030;15.396;2023-03-15T04:14:52;0.73;;;0.47;;
8399;SDS011;4237;47.030;15.396;2023-03-15T04:17:21;2.47;;;0.50;;
8399;SDS011;4237;47.030;15.396;2023-03-15T04:19:49;5.40;;;0.70;;
8399;SDS011;4237;47.030;15.396;2023-03-15T04:22:18;1.50;;;1.10;;
8399;SDS011;4237;47.030;15.396;2023-03-15T04:24:47;2.47;;;1.23;;
8399;SDS011;4237;47.030;15.396;2023-03-15T04:27:16;2.20;;;1.00;;
8399;SDS011;4237;47.030;15.396;2023-03-15T04:29:45;2.20;;;1.30;;
8399;SDS011;4237;47.030;15.396;2023-03-15T04:32:13;2.70;;;1.10;;
8399;SDS011;4237;47.030;15.396;2023-03-15T04:34:43;3.07;;;1.20;;
8399;SDS011;4237;47.030;15.396;2023-03-15T04:37:14;3.70;;;1.23;;
8399;SDS011;4237;47.030;15.396;2023-03-15T04:39:42;4.57;;;1.57;;
8399;SDS011;4237;47.030;15.396;2023-03-15T04:42:11;1.43;;;0.83;;
8399;SDS011;4237;47.030;15.396;2023-03-15T04:44:40;4.10;;;1.10;;
8399;SDS011;4237;47.030;15.396;2023-03-15T04:47:08;8.23;;;1.60;;
8399;SDS011;4237;47.030;15.396;2023-03-15T04:49:37;7.13;;;3.03;;
8399;SDS011;4237;47.030;15.396;2023-03-15T04:52:05;4.80;;;2.70;;
8399;SDS011;4237;47.030;15.396;2023-03-15T04:54:34;6.23;;;2.60;;
8399;SDS011;4237;47.030;15.396;2023-03-15T04:57:03;5.57;;;1.97;;
8399;SDS011;4237;47.030;15.396;2023-03-15T04:59:31;9.30;;;2.53;;
8399;SDS011;4237;47.030;15.396;2023-03-15T05:02:00;4.77;;;2.40;;
8399;SDS011;4237;47.030;15.396;2023-03-15T05:04:29;6.23;;;1.93;;
8399;SDS011;4237;47.030;15.396;2023-03-15T05:06:57;2.17;;;1.50;;
8399;SDS011;4237;47.030;15.396;2023-03-15T05:09:26;2.33;;;1.23;;
8399;SDS011;4237;47.030;15.396;2023-03-15T05:11:54;5.23;;;1.33;;
8399;SDS011;4237;47.030;15.396;2023-03-15T05:14:23;5.53;;;1.30;;
8399;SDS011;4237;47.030;15.396;2023-03-15T05:16:53;1.80;;;0.70;;
8399;SDS011;4237;47.030;15.396;2023-03-15T05:19:29;0.50;;;0.40;;
8399;SDS011;4237;47.030;15.396;2023-03-15T05:21:54;1.43;;;0.83;;
8399;SDS011;4237;47.030;15.396;2023-03-15T05:24:23;7.10;;;0.80;;
8399;SDS011;4237;47.030;15.396;2023-03-15T05:26:51;1.17;;;0.70;;
8399;SDS011;4237;47.030;15.396;2023-03-15T05:29:20;1.70;;;0.57;;
8399;SDS011;4237;47.030;15.396;2023-03-15T05:31:49;3.60;;;0.73;;
8399;SDS011;4237;47.030;15.396;2023-03-15T05:34:18;1.70;;;0.50;;
8399;SDS011;4237;47.030;15.396;2023-03-15T05:36:49;1.00;;;0.40;;
8399;SDS011;4237;47.030;15.396;2023-03-15T05:39:18;0.73;;;0.30;;
8399;SDS011;4237;47.030;15.396;2023-03-15T05:41:48;2.37;;;0.20;;
8399;SDS011;4237;47.030;15.396;2023-03-15T05:44:17;3.07;;;0.47;;
8399;SDS011;4237;47.030;15.396;2023-03-15T05:46:46;0.90;;;0.50;;
8399;SDS011;4237;47.030;15.396;2023-03-15T05:49:14;1.03;;;0.50;;
8399;SDS011;4237;47.030;15.396;2023-03-15T05:51:43;2.50;;;0.60;;
8399;SDS011;4237;47.030;15.396;2023-03-15T05:54:11;0.60;;;0.40;;
8399;SDS011;4237;47.030;15.396;2023-03-15T05:56:40;3.77;;;0.50;;
8399;SDS011;4237;47.030;15.396;2023-03-15T05:59:09;2.07;;;1.37;;
8399;SDS011;4237;47.030;15.396;2023-03-15T06:01:37;1.87;;;0.97;;
8399;SDS011;4237;47.030;15.396;2023-03-15T06:04:06;1.13;;;0.73;;
8399;SDS011;4237;47.030;15.396;2023-03-15T06:06:35;0.73;;;0.50;;
8399;SDS011;4237;47.030;15.396;2023-03-15T06:09:03;0.20;;;0.20;;
8399;SDS011;4237;47.030;15.396;2023-03-15T06:11:32;1.23;;;0.47;;
8399;SDS011;4237;47.030;15.396;2023-03-15T06:14:01;1.13;;;0.50;;
8399;SDS011;4237;47.030;15.396;2023-03-15T06:16:30;2.30;;;0.60;;
8399;SDS011;4237;47.030;15.396;2023-03-15T06:18:59;1.50;;;0.60;;
8399;SDS011;4237;47.030;15.396;2023-03-15T06:21:27;0.70;;;0.57;;
8399;SDS011;4237;47.030;15.396;2023-03-15T06:23:56;0.83;;;0.40;;
8399;SDS011;4237;47.030;15.396;2023-03-15T06:26:25;0.70;;;0.30;;
8399;SDS011;4237;47.030;15.396;2023-03-15T06:28:54;1.10;;;0.50;;
8399;SDS011;4237;47.030;15.396;2023-03-15T06:31:22;0.77;;;0.30;;
8399;SDS011;4237;47.030;15.396;2023-03-15T06:33:51;1.00;;;0.67;;
8399;SDS011;4237;47.030;15.396;2023-03-15T06:36:20;2.00;;;0.50;;
8399;SDS011;4237;47.030;15.396;2023-03-15T06:38:50;1.93;;;0.60;;
8399;SDS011;4237;47.030;15.396;2023-03-15T06:41:20;5.20;;;1.07;;
8399;SDS011;4237;47.030;15.396;2023-03-15T06:43:48;5.20;;;1.10;;
8399;SDS011;4237;47.030;15.396;2023-03-15T06:46:17;3.20;;;0.47;;
8399;SDS011;4237;47.030;15.396;2023-03-15T06:48:46;1.50;;;0.40;;
8399;SDS011;4237;47.030;15.396;2023-03-15T06:51:15;0.90;;;0.40;;
8399;SDS011;4237;47.030;15.396;2023-03-15T06:53:44;0.70;;;0.13;;
8399;SDS011;4237;47.030;15.396;2023-03-15T06:56:12;0.77;;;0.57;;
8399;SDS011;4237;47.030;15.396;2023-03-15T06:58:41;1.07;;;0.30;;
8399;SDS011;4237;47.030;15.396;2023-03-15T07:01:11;2.53;;;0.37;;
8399;SDS011;4237;47.030;15.396;2023-03-15T07:03:41;1.50;;;0.33;;
8399;SDS011;4237;47.030;15.396;2023-03-15T07:06:10;0.90;;;0.30;;
8399;SDS011;4237;47.030;15.396;2023-03-15T07:08:38;2.00;;;0.40;;
8399;SDS011;4237;47.030;15.396;2023-03-15T07:11:07;1.80;;;0.20;;
8399;SDS011;4237;47.030;15.396;2023-03-15T07:13:38;0.50;;;0.30;;
8399;SDS011;4237;47.030;15.396;2023-03-15T07:16:07;4.10;;;0.20;;
8399;SDS011;4237;47.030;15.396;2023-03-15T07:18:36;0.50;;;0.30;;
8399;SDS011;4237;47.030;15.396;2023-03-15T07:21:05;1.77;;;0.30;;
8399;SDS011;4237;47.030;15.396;2023-03-15T07:23:36;2.03;;;0.20;;
8399;SDS011;4237;47.030;15.396;2023-03-15T07:26:04;0.73;;;0.27;;
8399;SDS011;4237;47.030;15.396;2023-03-15T07:28:33;1.47;;;0.40;;
8399;SDS011;4237;47.030;15.396;2023-03-15T07:31:02;2.13;;;0.40;;
8399;SDS011;4237;47.030;15.396;2023-03-15T07:33:32;0.93;;;0.50;;
8399;SDS011;4237;47.030;15.396;2023-03-15T07:36:02;2.53;;;0.40;;
8399;SDS011;4237;47.030;15.396;2023-03-15T07:38:33;6.03;;;0.50;;
8399;SDS011;4237;47.030;15.396;2023-03-15T07:41:03;7.07;;;0.37;;
8399;SDS011;4237;47.030;15.396;2023-03-15T07:43:33;3.03;;;0.30;;
8399;SDS011;4237;47.030;15.396;2023-03-15T07:46:01;2.93;;;0.23;;
8399;SDS011;4237;47.030;15.396;2023-03-15T07:48:30;0.50;;;0.10;;
8399;SDS011;4237;47.030;15.396;2023-03-15T07:50:59;1.30;;;0.30;;
8399;SDS011;4237;47.030;15.396;2023-03-15T07:53:27;3.03;;;0.30;;
8399;SDS011;4237;47.030;15.396;2023-03-15T07:55:56;0.47;;;0.23;;
8399;SDS011;4237;47.030;15.396;2023-03-15T07:58:25;0.63;;;0.23;;
8399;SDS011;4237;47.030;15.396;2023-03-15T08:00:54;0.40;;;0.20;;
8399;SDS011;4237;47.030;15.396;2023-03-15T08:03:23;1.33;;;0.20;;
8399;SDS011;4237;47.030;15.396;2023-03-15T08:05:55;3.43;;;0.80;;
8399;SDS011;4237;47.030;15.396;2023-03-15T08:08:24;3.07;;;0.20;;
8399;SDS011;4237;47.030;15.396;2023-03-15T08:10:52;0.10;;;0.10;;
8399;SDS011;4237;47.030;15.396;2023-03-15T08:13:21;0.30;;;0.13;;
8399;SDS011;4237;47.030;15.396;2023-03-15T08:15:50;0.27;;;0.20;;
8399;SDS011;4237;47.030;15.396;2023-03-15T08:18:19;0.10;;;0.10;;
8399;SDS011;4237;47.030;15.396;2023-03-15T08:20:47;0.73;;;0.10;;
8399;SDS011;4237;47.030;15.396;2023-03-15T08:23:16;3.30;;;0.30;;
8399;SDS011;4237;47.030;15.396;2023-03-15T08:25:45;1.00;;;0.50;;
8399;SDS011;4237;47.030;15.396;2023-03-15T08:28:13;1.37;;;0.20;;
8399;SDS011;4237;47.030;15.396;2023-03-15T08:30:42;1.97;;;0.50;;
8399;SDS011;4237;47.030;15.396;2023-03-15T08:33:11;1.00;;;0.20;;
8399;SDS011;4237;47.030;15.396;2023-03-15T08:35:39;2.63;;;0.50;;
8399;SDS011;4237;47.030;15.396;2023-03-15T08:38:08;1.80;;;0.37;;
8399;SDS011;4237;47.030;15.396;2023-03-15T08:40:36;0.77;;;0.30;;
8399;SDS011;4237;47.030;15.396;2023-03-15T08:43:06;0.57;;;0.30;;
8399;SDS011;4237;47.030;15.396;2023-03-15T08:45:35;2.60;;;0.33;;
8399;SDS011;4237;47.030;15.396;2023-03-15T08:48:04;0.50;;;0.23;;
8399;SDS011;4237;47.030;15.396;2023-03-15T08:50:33;2.33;;;0.37;;
8399;SDS011;4237;47.030;15.396;2023-03-15T08:53:02;1.43;;;0.20;;
8399;SDS011;4237;47.030;15.396;2023-03-15T08:55:31;0.50;;;0.23;;
8399;SDS011;4237;47.030;15.396;2023-03-15T08:58:01;1.60;;;0.20;;
8399;SDS011;4237;47.030;15.396;2023-03-15T09:00:30;0.17;;;0.10;;
8399;SDS011;4237;47.030;15.396;2023-03-15T09:02:59;1.10;;;0.10;;
8399;SDS011;4237;47.030;15.396;2023-03-15T09:05:27;0.03;;;0.03;;
8399;SDS011;4237;47.030;15.396;2023-03-15T09:07:56;0.23;;;0.10;;
8399;SDS011;4237;47.030;15.396;2023-03-15T09:10:26;0.30;;;0.10;;
8399;SDS011;4237;47.030;15.396;2023-03-15T09:12:55;0.00;;;0.00;;
8399;SDS011;4237;47.030;15.396;2023-03-15T09:15:23;0.00;;;0.00;;
8399;SDS011;4237;47.030;15.396;2023-03-15T09:17:52;0.10;;;0.00;;
8399;SDS011;4237;47.030;15.396;2023-03-15T09:20:21;0.30;;;0.10;;
8399;SDS011;4237;47.030;15.396;2023-03-15T09:22:52;5.87;;;0.10;;
8399;SDS011;4237;47.030;15.396;2023-03-15T09:25:22;1.13;;;0.20;;
8399;SDS011;4237;47.030;15.396;2023-03-15T09:27:52;0.17;;;0.00;;
8399;SDS011;4237;47.030;15.396;2023-03-15T09:30:21;0.10;;;0.00;;
8399;SDS011;4237;47.030;15.396;2023-03-15T09:32:50;0.00;;;0.00;;
8399;SDS011;4237;47.030;15.396;2023-03-15T09:35:20;0.00;;;0.00;;
8399;SDS011;4237;47.030;15.396;2023-03-15T09:37:49;0.07;;;0.07;;
8399;SDS011;4237;47.030;15.396;2023-03-15T09:49:00;0.00;;;0.00;;
8399;SDS011;4237;47.030;15.396;2023-03-15T09:51:45;1.00;;;0.10;;
8399;SDS011;4237;47.030;15.396;2023-03-15T09:54:25;1.60;;;0.10;;
8399;SDS011;4237;47.030;15.396;2023-03-15T09:56:59;0.73;;;0.20;;
8399;SDS011;4237;47.030;15.396;2023-03-15T09:59:32;3.13;;;0.10;;
8399;SDS011;4237;47.030;15.396;2023-03-15T10:02:12;0.00;;;0.00;;
8399;SDS011;4237;47.030;15.396;2023-03-15T10:04:44;0.50;;;0.50;;
8399;SDS011;4237;47.030;15.396;2023-03-15T10:07:14;3.30;;;0.07;;
8399;SDS011;4237;47.030;15.396;2023-03-15T10:09:43;0.37;;;0.30;;
8399;SDS011;4237;47.030;15.396;2023-03-15T10:12:19;0.20;;;0.10;;
8399;SDS011;4237;47.030;15.396;2023-03-15T10:14:51;0.87;;;0.20;;
8399;SDS011;4237;47.030;15.396;2023-03-15T10:20:05;1.33;;;0.13;;
8399;SDS011;4237;47.030;15.396;2023-03-15T10:22:43;1.80;;;0.20;;
8399;SDS011;4237;47.030;15.396;2023-03-15T10:25:27;6.33;;;0.43;;
8399;SDS011;4237;47.030;15.396;2023-03-15T10:28:02;2.00;;;0.10;;
8399;SDS011;4237;47.030;15.396;2023-03-15T10:30:33;0.50;;;0.10;;
8399;SDS011;4237;47.030;15.396;2023-03-15T10:33:05;0.30;;;0.20;;
8399;SDS011;4237;47.030;15.396;2023-03-15T10:35:35;1.60;;;0.10;;
8399;SDS011;4237;47.030;15.396;2023-03-15T10:38:14;2.53;;;0.23;;
8399;SDS011;4237;47.030;15.396;2023-03-15T10:40:45;0.20;;;0.10;;
8399;SDS011;4237;47.030;15.396;2023-03-15T10:45:57;1.63;;;0.17;;
8399;SDS011;4237;47.030;15.396;2023-03-15T10:48:31;0.10;;;0.10;;
8399;SDS011;4237;47.030;15.396;2023-03-15T10:51:03;0.53;;;0.27;;
8399;SDS011;4237;47.030;15.396;2023-03-15T10:53:33;0.67;;;0.20;;
8399;SDS011;4237;47.030;15.396;2023-03-15T10:56:04;2.53;;;0.30;;
8399;SDS011;4237;47.030;15.396;2023-03-15T10:58:38;0.17;;;0.17;;
8399;SDS011;4237;47.030;15.396;2023-03-15T11:01:10;2.73;;;0.40;;
8399;SDS011;4237;47.030;15.396;2023-03-15T11:03:41;4.93;;;0.43;;
8399;SDS011;4237;47.030;15.396;2023-03-15T11:06:18;0.53;;;0.30;;
8399;SDS011;4237;47.030;15.396;2023-03-15T11:08:48;0.50;;;0.40;;
8399;SDS011;4237;47.030;15.396;2023-03-15T11:11:17;0.20;;;0.10;;
8399;SDS011;4237;47.030;15.396;2023-03-15T11:13:59;2.40;;;0.17;;
8399;SDS011;4237;47.030;15.396;2023-03-15T11:16:32;0.77;;;0.10;;
8399;SDS011;4237;47.030;15.396;2023-03-15T11:19:02;0.60;;;0.10;;
8399;SDS011;4237;47.030;15.396;2023-03-15T11:21:34;0.10;;;0.00;;
8399;SDS011;4237;47.030;15.396;2023-03-15T11:24:05;1.37;;;0.20;;
8399;SDS011;4237;47.030;15.396;2023-03-15T11:26:39;0.27;;;0.07;;
8399;SDS011;4237;47.030;15.396;2023-03-15T11:31:49;0.30;;;0.13;;
8399;SDS011;4237;47.030;15.396;2023-03-15T11:37:12;1.10;;;0.40;;
8399;SDS011;4237;47.030;15.396;2023-03-15T11:39:55;1.90;;;0.10;;
8399;SDS011;4237;47.030;15.396;2023-03-15T11:42:34;0.43;;;0.20;;
8399;SDS011;4237;47.030;15.396;2023-03-15T11:45:18;0.20;;;0.10;;
8399;SDS011;4237;47.030;15.396;2023-03-15T11:47:55;0.40;;;0.20;;
8399;SDS011;4237;47.030;15.396;2023-03-15T11:50:25;0.73;;;0.20;;
8399;SDS011;4237;47.030;15.396;2023-03-15T11:52:54;0.77;;;0.23;;
8399;SDS011;4237;47.030;15.396;2023-03-15T11:55:25;0.20;;;0.10;;
8399;SDS011;4237;47.030;15.396;2023-03-15T11:57:55;0.87;;;0.30;;
8399;SDS011;4237;47.030;15.396;2023-03-15T12:05:51;1.33;;;0.47;;
8399;SDS011;4237;47.030;15.396;2023-03-15T12:08:23;2.23;;;0.50;;
8399;SDS011;4237;47.030;15.396;2023-03-15T12:11:12;1.10;;;0.40;;
8399;SDS011;4237;47.030;15.396;2023-03-15T12:16:30;1.00;;;0.50;;
8399;SDS011;4237;47.030;15.396;2023-03-15T12:19:02;1.40;;;0.50;;
8399;SDS011;4237;47.030;15.396;2023-03-15T12:21:56;1.80;;;0.30;;
8399;SDS011;4237;47.030;15.396;2023-03-15T12:24:29;1.90;;;0.70;;
8399;SDS011;4237;47.030;15.396;2023-03-15T12:27:13;2.40;;;0.33;;
8399;SDS011;4237;47.030;15.396;2023-03-15T12:29:44;6.60;;;0.53;;
8399;SDS011;4237;47.030;15.396;2023-03-15T12:32:16;3.20;;;0.80;;
8399;SDS011;4237;47.030;15.396;2023-03-15T12:34:49;1.03;;;0.47;;
8399;SDS011;4237;47.030;15.396;2023-03-15T12:42:58;3.10;;;0.70;;
8399;SDS011;4237;47.030;15.396;2023-03-15T12:45:41;0.93;;;0.50;;
8399;SDS011;4237;47.030;15.396;2023-03-15T12:50:49;2.70;;;0.50;;
8399;SDS011;4237;47.030;15.396;2023-03-15T12:58:59;1.60;;;0.93;;
8399;SDS011;4237;47.030;15.396;2023-03-15T13:01:39;1.20;;;0.50;;
8399;SDS011;4237;47.030;15.396;2023-03-15T13:04:09;1.33;;;0.67;;
8399;SDS011;4237;47.030;15.396;2023-03-15T13:09:29;0.53;;;0.30;;
8399;SDS011;4237;47.030;15.396;2023-03-15T13:14:42;3.00;;;0.83;;
8399;SDS011;4237;47.030;15.396;2023-03-15T13:20:00;2.80;;;0.47;;
8399;SDS011;4237;47.030;15.396;2023-03-15T13:28:11;2.97;;;0.77;;
8399;SDS011;4237;47.030;15.396;2023-03-15T13:30:50;6.57;;;0.90;;
8399;SDS011;4237;47.030;15.396;2023-03-15T13:33:25;1.50;;;0.37;;
8399;SDS011;4237;47.030;15.396;2023-03-15T13:38:39;1.83;;;0.60;;
8399;SDS011;4237;47.030;15.396;2023-03-15T13:41:17;3.03;;;0.60;;
8399;SDS011;4237;47.030;15.396;2023-03-15T13:43:48;8.90;;;1.53;;
8399;SDS011;4237;47.030;15.396;2023-03-15T13:46:20;1.63;;;0.67;;
8399;SDS011;4237;47.030;15.396;2023-03-15T13:48:52;3.70;;;0.80;;
8399;SDS011;4237;47.030;15.396;2023-03-15T13:51:25;1.63;;;0.83;;
8399;SDS011;4237;47.030;15.396;2023-03-15T13:54:00;2.03;;;0.70;;
8399;SDS011;4237;47.030;15.396;2023-03-15T13:56:53;4.60;;;1.00;;
8399;SDS011;4237;47.030;15.396;2023-03-15T13:59:25;1.40;;;0.47;;
8399;SDS011;4237;47.030;15.396;2023-03-15T14:01:58;1.17;;;0.67;;
8399;SDS011;4237;47.030;15.396;2023-03-15T14:04:28;2.90;;;0.83;;
8399;SDS011;4237;47.030;15.396;2023-03-15T14:13:14;4.37;;;0.83;;
8399;SDS011;4237;47.030;15.396;2023-03-15T14:15:46;2.10;;;0.67;;
8399;SDS011;4237;47.030;15.396;2023-03-15T14:18:34;2.13;;;0.73;;
8399;SDS011;4237;47.030;15.396;2023-03-15T14:23:44;2.43;;;0.73;;
8399;SDS011;4237;47.030;15.396;2023-03-15T14:26:19;2.43;;;0.87;;
8399;SDS011;4237;47.030;15.396;2023-03-15T14:28:56;3.80;;;0.50;;
8399;SDS011;4237;47.030;15.396;2023-03-15T14:31:28;2.53;;;0.70;;
8399;SDS011;4237;47.030;15.396;2023-03-15T14:34:07;1.77;;;0.60;;
8399;SDS011;4237;47.030;15.396;2023-03-15T14:36:44;4.07;;;1.17;;
8399;SDS011;4237;47.030;15.396;2023-03-15T14:39:17;4.03;;;0.70;;
8399;SDS011;4237;47.030;15.396;2023-03-15T14:41:46;0.97;;;0.70;;
8399;SDS011;4237;47.030;15.396;2023-03-15T14:44:15;1.33;;;0.60;;
8399;SDS011;4237;47.030;15.396;2023-03-15T14:46:44;1.30;;;0.70;;
8399;SDS011;4237;47.030;15.396;2023-03-15T14:49:16;2.07;;;1.13;;
8399;SDS011;4237;47.030;15.396;2023-03-15T14:51:47;1.40;;;0.90;;
8399;SDS011;4237;47.030;15.396;2023-03-15T14:54:19;0.90;;;0.60;;
8399;SDS011;4237;47.030;15.396;2023-03-15T14:56:47;2.10;;;0.90;;
8399;SDS011;4237;47.030;15.396;2023-03-15T14:59:16;2.40;;;0.73;;
8399;SDS011;4237;47.030;15.396;2023-03-15T15:01:47;2.93;;;0.40;;
8399;SDS011;4237;47.030;15.396;2023-03-15T15:04:20;2.20;;;0.60;;
8399;SDS011;4237;47.030;15.396;2023-03-15T15:06:49;2.00;;;0.90;;
8399;SDS011;4237;47.030;15.396;2023-03-15T15:09:22;2.43;;;1.10;;
8399;SDS011;4237;47.030;15.396;2023-03-15T15:11:53;1.30;;;0.87;;
8399;SDS011;4237;47.030;15.396;2023-03-15T15:14:22;3.67;;;0.90;;
8399;SDS011;4237;47.030;15.396;2023-03-15T15:16:51;2.80;;;1.20;;
8399;SDS011;4237;47.030;15.396;2023-03-15T15:19:19;2.57;;;1.00;;
8399;SDS011;4237;47.030;15.396;2023-03-15T15:21:48;1.23;;;0.63;;
8399;SDS011;4237;47.030;15.396;2023-03-15T15:24:18;3.03;;;0.90;;
8399;SDS011;4237;47.030;15.396;2023-03-15T15:26:49;2.03;;;0.97;;
8399;SDS011;4237;47.030;15.396;2023-03-15T15:29:18;3.57;;;1.07;;
8399;SDS011;4237;47.030;15.396;2023-03-15T15:31:47;5.97;;;2.47;;
8399;SDS011;4237;47.030;15.396;2023-03-15T15:34:26;4.40;;;0.70;;
8399;SDS011;4237;47.030;15.396;2023-03-15T15:36:55;1.20;;;0.60;;
8399;SDS011;4237;47.030;15.396;2023-03-15T15:39:25;0.77;;;0.60;;
8399;SDS011;4237;47.030;15.396;2023-03-15T15:41:55;2.00;;;0.70;;
8399;SDS011;4237;47.030;15.396;2023-03-15T15:44:24;1.43;;;0.97;;
8399;SDS011;4237;47.030;15.396;2023-03-15T15:46:53;3.80;;;0.97;;
8399;SDS011;4237;47.030;15.396;2023-03-15T15:49:23;5.53;;;1.50;;
8399;SDS011;4237;47.030;15.396;2023-03-15T15:51:52;1.33;;;0.80;;
8399;SDS011;4237;47.030;15.396;2023-03-15T15:54:23;2.40;;;1.20;;
8399;SDS011;4237;47.030;15.396;2023-03-15T15:56:59;2.70;;;0.77;;
8399;SDS011;4237;47.030;15.396;2023-03-15T15:59:24;2.40;;;1.00;;
8399;SDS011;4237;47.030;15.396;2023-03-15T16:01:53;2.07;;;0.87;;
8399;SDS011;4237;47.030;15.396;2023-03-15T16:04:22;1.93;;;0.60;;
8399;SDS011;4237;47.030;15.396;2023-03-15T16:06:53;1.47;;;0.90;;
8399;SDS011;4237;47.030;15.396;2023-03-15T16:09:27;1.70;;;0.80;;
8399;SDS011;4237;47.030;15.396;2023-03-15T16:11:59;2.57;;;0.97;;
8399;SDS011;4237;47.030;15.396;2023-03-15T16:14:28;2.60;;;0.80;;
8399;SDS011;4237;47.030;15.396;2023-03-15T16:16:57;4.47;;;1.20;;
8399;SDS011;4237;47.030;15.396;2023-03-15T16:19:27;2.00;;;1.00;;
8399;SDS011;4237;47.030;15.396;2023-03-15T16:21:56;7.67;;;1.60;;
8399;SDS011;4237;47.030;15.396;2023-03-15T16:24:31;3.77;;;1.53;;
8399;SDS011;4237;47.030;15.396;2023-03-15T16:27:06;1.63;;;1.07;;
8399;SDS011;4237;47.030;15.396;2023-03-15T16:29:31;2.90;;;1.03;;
8399;SDS011;4237;47.030;15.396;2023-03-15T16:32:06;2.30;;;1.67;;
8399;SDS011;4237;47.030;15.396;2023-03-15T16:34:36;3.07;;;1.80;;